Time;durP1;ratioP1;P1;durP2;ratioP2;P2;SDS_P1;SDS_P2;PMS_P1;PMS_P2;Temp;Humidity;BMP_temperature;BMP_pressure;BME280_temperature;BME280_humidity;BME280_pressure;Samples;Min_cycle;Max_cycle;Signal;HPM_P1;HPM_P2
2022/11/05 00:09:31;;;;;;;;;;;;;;;;;;5112733;28;19977;-56
2022/11/05 00:17:27;;;;;;;;;;;;;;;;;;5092070;28;19932;-56
2022/11/05 00:19:53;;;;;;;;;;;;;;;;;;5092082;28;19924;-54
2022/11/05 00:25:15;;;;;;;;;;;;;;;;;;5055180;28;20445;-56
2022/11/05 00:27:45;;;;;;;;;;;;;;;;;;5091805;28;19935;-55
2022/11/05 00:30:12;;;;;;;;;;;;;;;;;;5092268;28;20392;-56
2022/11/05 00:32:39;;;;;;;;;;;;;;;;;;5100650;28;19969;-57
2022/11/05 00:35:06;;;;;;;;;;;;;;;;;;5112199;28;19928;-57
2022/11/05 00:37:34;;;;;;;;;;;;;;;;;;5111766;28;19976;-55
2022/11/05 00:40:01;;;;;;;;;;;;;;;;;;5112239;28;20043;-57
2022/11/05 00:45:11;;;;;;;;;;;;;;;;;;5091974;28;20312;-58
2022/11/05 00:50:23;;;;;;;;;;;;;;;;;;5092958;28;19939;-57
2022/11/05 00:52:58;;;;;;;;;;;;;;;;;;5097884;28;20320;-55
2022/11/05 00:55:27;;;;;;;;;;;;;;;;;;5112209;28;20384;-57
2022/11/05 00:57:53;;;;;;;;;;;;;;;;;;5112042;28;19923;-54
2022/11/05 01:00:20;;;;;;;;;;;;;;;;;;5112169;28;20001;-56
2022/11/05 01:02:47;;;;;;;;;;;;;;;;;;5110256;28;19924;-55
2022/11/05 01:05:13;;;;;;;;;;;;;;;;;;5114574;28;19924;-57
2022/11/05 01:07:40;;;;;;;;;;;;;;;;;;5115024;28;20441;-56
2022/11/05 01:10:09;;;;;;;;;;;;;;;;;;5115300;28;19988;-56
2022/11/05 01:12:35;;;;;;;;;;;;;;;;;;5096742;28;19950;-56
2022/11/05 01:15:02;;;;;;;;;;;;;;;;;;5114079;28;19928;-56
2022/11/05 01:17:28;;;;;;;;;;;;;;;;;;5115360;28;19928;-56
2022/11/05 01:19:55;;;;;;;;;;;;;;;;;;5115372;28;19984;-55
2022/11/05 01:22:22;;;;;;;;;;;;;;;;;;5115638;28;19935;-56
2022/11/05 01:24:48;;;;;;;;;;;;;;;;;;5113550;28;20405;-55
2022/11/05 01:27:16;;;;;;;;;;;;;;;;;;5111859;28;19970;-53
2022/11/05 01:29:43;;;;;;;;;;;;;;;;;;5094871;28;19924;-52
2022/11/05 01:32:09;;;;;;;;;;;;;;;;;;5096904;28;19927;-57
2022/11/05 01:34:36;;;;;;;;;;;;;;;;;;5103440;28;19976;-52
2022/11/05 01:37:02;;;;;;;;;;;;;;;;;;5094777;28;19932;-55
2022/11/05 01:39:29;;;;;;;;;;;;;;;;;;5094819;28;19924;-57
2022/11/05 01:41:57;;;;;;;;;;;;;;;;;;5094985;28;19924;-56
2022/11/05 01:44:38;;;;;;;;;;;;;;;;;;5095613;28;19930;-57
2022/11/05 01:47:08;;;;;;;;;;;;;;;;;;5093788;28;19924;-55
2022/11/05 01:49:35;;;;;;;;;;;;;;;;;;5094734;28;19931;-54
2022/11/05 01:52:03;;;;;;;;;;;;;;;;;;5094511;28;19924;-55
2022/11/05 01:54:32;;;;;;;;;;;;;;;;;;5100644;28;19931;-57
2022/11/05 01:57:00;;;;;;;;;;;;;;;;;;5114616;28;20389;-57
2022/11/05 01:59:28;;;;;;;;;;;;;;;;;;5114694;28;19989;-56
2022/11/05 02:01:54;;;;;;;;;;;;;;;;;;5114960;28;20388;-55
2022/11/05 02:04:26;;;;;;;;;;;;;;;;;;5105763;28;20368;-55
2022/11/05 02:06:52;;;;;;;;;;;;;;;;;;5114513;28;20550;-56
2022/11/05 02:09:21;;;;;;;;;;;;;;;;;;5114579;28;19977;-54
2022/11/05 02:11:48;;;;;;;;;;;;;;;;;;5114492;28;19923;-55
2022/11/05 02:14:14;;;;;;;;;;;;;;;;;;5111603;28;19928;-57
2022/11/05 02:16:43;;;;;;;;;;;;;;;;;;5093686;28;19928;-54
2022/11/05 02:19:23;;;;;;;;;;;;;;;;;;5093789;28;19928;-55
2022/11/05 02:22:07;;;;;;;;;;;;;;;;;;5094040;28;20411;-55
2022/11/05 02:24:49;;;;;;;;;;;;;;;;;;5095901;28;19928;-53
2022/11/05 02:27:18;;;;;;;;;;;;;;;;;;5114112;28;19976;-57
2022/11/05 02:30:06;;;;;;;;;;;;;;;;;;5113999;28;20016;-55
2022/11/05 02:32:57;;;;;;;;;;;;;;;;;;5114286;28;19928;-56
2022/11/05 02:35:31;;;;;;;;;;;;;;;;;;5109121;28;20010;-58
2022/11/05 02:38:02;;;;;;;;;;;;;;;;;;5093571;28;20377;-56
2022/11/05 02:40:32;;;;;;;;;;;;;;;;;;5093701;28;20311;-54
2022/11/05 02:43:03;;;;;;;;;;;;;;;;;;5093533;28;19925;-55
2022/11/05 02:45:36;;;;;;;;;;;;;;;;;;5095588;28;19932;-55
2022/11/05 02:48:07;;;;;;;;;;;;;;;;;;5113795;28;19975;-53
2022/11/05 02:50:37;;;;;;;;;;;;;;;;;;5113929;28;20380;-54
2022/11/05 02:53:06;;;;;;;;;;;;;;;;;;5113670;28;19935;-56
2022/11/05 02:55:34;;;;;;;;;;;;;;;;;;5113251;28;19934;-56
2022/11/05 02:58:02;;;;;;;;;;;;;;;;;;5093246;28;20407;-56
2022/11/05 03:00:49;;;;;;;;;;;;;;;;;;5093430;28;19924;-56
2022/11/05 03:03:21;;;;;;;;;;;;;;;;;;5093267;28;19969;-53
2022/11/05 03:06:02;;;;;;;;;;;;;;;;;;5102362;28;19924;-56
2022/11/05 03:08:36;;;;;;;;;;;;;;;;;;5093305;28;20427;-55
2022/11/05 03:11:09;;;;;;;;;;;;;;;;;;5093644;28;20019;-57
2022/11/05 03:13:40;;;;;;;;;;;;;;;;;;5092918;28;20369;-56
2022/11/05 03:16:10;;;;;;;;;;;;;;;;;;5093138;28;19977;-56
2022/11/05 03:18:41;;;;;;;;;;;;;;;;;;5111655;28;19924;-57
2022/11/05 03:21:11;;;;;;;;;;;;;;;;;;5093148;28;19946;-57
2022/11/05 03:23:40;;;;;;;;;;;;;;;;;;5092936;28;20442;-56
2022/11/05 03:26:09;;;;;;;;;;;;;;;;;;5092556;28;20416;-57
2022/11/05 03:28:37;;;;;;;;;;;;;;;;;;5092713;28;19928;-56
2022/11/05 03:31:04;;;;;;;;;;;;;;;;;;5092689;28;19969;-56
2022/11/05 03:33:32;;;;;;;;;;;;;;;;;;5092729;28;19928;-58
2022/11/05 03:36:01;;;;;;;;;;;;;;;;;;5092820;28;19977;-57
2022/11/05 03:38:30;;;;;;;;;;;;;;;;;;5092484;28;19924;-56
2022/11/05 03:40:59;;;;;;;;;;;;;;;;;;5092268;28;19931;-57
2022/11/05 03:43:28;;;;;;;;;;;;;;;;;;5092227;28;20304;-57
2022/11/05 03:45:57;;;;;;;;;;;;;;;;;;5092595;28;20270;-56
2022/11/05 03:48:25;;;;;;;;;;;;;;;;;;5092281;28;20357;-54
2022/11/05 03:50:55;;;;;;;;;;;;;;;;;;5092428;28;19928;-57
2022/11/05 03:53:24;;;;;;;;;;;;;;;;;;5092307;28;19925;-57
2022/11/05 03:55:54;;;;;;;;;;;;;;;;;;5092351;28;19931;-58
2022/11/05 03:58:22;;;;;;;;;;;;;;;;;;5092250;28;20357;-54
2022/11/05 04:00:48;;;;;;;;;;;;;;;;;;5092400;28;19959;-53
2022/11/05 04:03:15;;;;;;;;;;;;;;;;;;5092345;28;19924;-55
2022/11/05 04:05:42;;;;;;;;;;;;;;;;;;5092036;28;19924;-58
2022/11/05 04:13:38;;;;;;;;;;;;;;;;;;5092119;28;20328;-52
2022/11/05 04:18:49;;;;;;;;;;;;;;;;;;5092116;28;19932;-55
2022/11/05 04:24:08;;;;;;;;;;;;;;;;;;5091991;28;19969;-56
2022/11/05 04:26:36;;;;;;;;;;;;;;;;;;5092206;28;19934;-56
2022/11/05 04:31:47;;;;;;;;;;;;;;;;;;5092047;28;19947;-58
2022/11/05 04:34:15;;;;;;;;;;;;;;;;;;5091974;28;19932;-54
2022/11/05 04:36:41;;;;;;;;;;;;;;;;;;5092141;28;19924;-56
2022/11/05 04:39:08;;;;;;;;;;;;;;;;;;5094446;28;19924;-56
2022/11/05 04:41:36;;;;;;;;;;;;;;;;;;5095866;28;20401;-56
2022/11/05 04:44:03;;;;;;;;;;;;;;;;;;5095481;28;19924;-54
2022/11/05 04:46:29;;;;;;;;;;;;;;;;;;5095703;28;20309;-57
2022/11/05 04:48:56;;;;;;;;;;;;;;;;;;5095615;28;20281;-57
2022/11/05 04:51:22;;;;;;;;;;;;;;;;;;5095724;28;19931;-57
2022/11/05 04:53:49;;;;;;;;;;;;;;;;;;5095380;28;19924;-54
2022/11/05 04:56:18;;;;;;;;;;;;;;;;;;5095237;28;19947;-57
2022/11/05 04:58:46;;;;;;;;;;;;;;;;;;5095329;28;19924;-55
2022/11/05 05:01:13;;;;;;;;;;;;;;;;;;5095678;28;20290;-54
2022/11/05 05:03:40;;;;;;;;;;;;;;;;;;5095271;28;20331;-54
2022/11/05 05:06:07;;;;;;;;;;;;;;;;;;5094700;28;19950;-55
2022/11/05 05:08:34;;;;;;;;;;;;;;;;;;5095098;28;19924;-55
2022/11/05 05:11:01;;;;;;;;;;;;;;;;;;5095088;28;20388;-54
2022/11/05 05:13:27;;;;;;;;;;;;;;;;;;5094250;28;19924;-53
2022/11/05 05:15:55;;;;;;;;;;;;;;;;;;5094404;28;19924;-55
2022/11/05 05:18:24;;;;;;;;;;;;;;;;;;5094140;28;19925;-53
2022/11/05 05:23:34;;;;;;;;;;;;;;;;;;5094457;28;20450;-55
2022/11/05 05:26:01;;;;;;;;;;;;;;;;;;5094546;28;19928;-57
2022/11/05 05:28:28;;;;;;;;;;;;;;;;;;5094043;28;20262;-54
2022/11/05 05:30:58;;;;;;;;;;;;;;;;;;5095025;28;20384;-53
2022/11/05 05:33:24;;;;;;;;;;;;;;;;;;5094564;28;19924;-57
2022/11/05 05:35:51;;;;;;;;;;;;;;;;;;5094236;28;19924;-52
2022/11/05 05:38:18;;;;;;;;;;;;;;;;;;5094809;28;19935;-53
2022/11/05 05:40:44;;;;;;;;;;;;;;;;;;5094419;28;19924;-53
2022/11/05 05:43:11;;;;;;;;;;;;;;;;;;5094600;28;19924;-53
2022/11/05 05:45:38;;;;;;;;;;;;;;;;;;5094235;28;19931;-51
2022/11/05 05:48:06;;;;;;;;;;;;;;;;;;5094337;28;20391;-53
2022/11/05 05:50:32;;;;;;;;;;;;;;;;;;5094210;28;20289;-54
2022/11/05 05:52:59;;;;;;;;;;;;;;;;;;5094751;28;19928;-52
2022/11/05 05:55:26;;;;;;;;;;;;;;;;;;5094096;28;19925;-56
2022/11/05 05:57:53;;;;;;;;;;;;;;;;;;5094176;28;19928;-56
2022/11/05 06:00:20;;;;;;;;;;;;;;;;;;5094386;28;20048;-54
2022/11/05 06:02:46;;;;;;;;;;;;;;;;;;5094336;28;20419;-53
2022/11/05 06:05:15;;;;;;;;;;;;;;;;;;5093103;28;20307;-50
2022/11/05 06:07:41;;;;;;;;;;;;;;;;;;5094158;28;19924;-53
2022/11/05 06:10:08;;;;;;;;;;;;;;;;;;5094224;28;19924;-54
2022/11/05 06:12:35;;;;;;;;;;;;;;;;;;5094056;28;20351;-57
2022/11/05 06:15:01;;;;;;;;;;;;;;;;;;5093736;28;19924;-54
2022/11/05 06:17:28;;;;;;;;;;;;;;;;;;5093717;28;20320;-57
2022/11/05 06:19:54;;;;;;;;;;;;;;;;;;5093797;28;19935;-54
2022/11/05 06:22:23;;;;;;;;;;;;;;;;;;5093989;28;19969;-54
2022/11/05 06:24:50;;;;;;;;;;;;;;;;;;5093480;28;19924;-52
2022/11/05 06:27:16;;;;;;;;;;;;;;;;;;5093775;28;19928;-51
2022/11/05 06:29:43;;;;;;;;;;;;;;;;;;5093747;28;19924;-51
2022/11/05 06:32:09;;;;;;;;;;;;;;;;;;5093782;28;20404;-51
2022/11/05 06:34:36;;;;;;;;;;;;;;;;;;5093509;28;19928;-56
2022/11/05 06:37:03;;;;;;;;;;;;;;;;;;5093911;28;19975;-54
2022/11/05 06:39:31;;;;;;;;;;;;;;;;;;5093523;28;19928;-51
2022/11/05 06:41:57;;;;;;;;;;;;;;;;;;5093647;28;20339;-54
2022/11/05 06:44:24;;;;;;;;;;;;;;;;;;5093113;28;19924;-56
2022/11/05 06:46:51;;;;;;;;;;;;;;;;;;5093173;28;19950;-55
2022/11/05 06:49:17;;;;;;;;;;;;;;;;;;5094327;28;19924;-53
2022/11/05 06:51:44;;;;;;;;;;;;;;;;;;5093519;28;20436;-53
2022/11/05 06:54:10;;;;;;;;;;;;;;;;;;5093026;28;19989;-55
2022/11/05 06:56:38;;;;;;;;;;;;;;;;;;5093195;28;19924;-54
2022/11/05 06:59:05;;;;;;;;;;;;;;;;;;5096398;28;19969;-54
2022/11/05 07:01:32;;;;;;;;;;;;;;;;;;5112944;28;20342;-57
2022/11/05 07:03:58;;;;;;;;;;;;;;;;;;5102020;28;20277;-55
2022/11/05 07:06:25;;;;;;;;;;;;;;;;;;5097589;28;19924;-56
2022/11/05 07:08:51;;;;;;;;;;;;;;;;;;5112735;28;19924;-53
2022/11/05 07:11:18;;;;;;;;;;;;;;;;;;5112544;28;19924;-54
2022/11/05 07:13:46;;;;;;;;;;;;;;;;;;5113037;28;20415;-50
2022/11/05 07:16:13;;;;;;;;;;;;;;;;;;5112925;28;19977;-51
2022/11/05 07:18:39;;;;;;;;;;;;;;;;;;5111367;28;19924;-55
2022/11/05 07:21:06;;;;;;;;;;;;;;;;;;5093905;28;19978;-55
2022/11/05 07:23:32;;;;;;;;;;;;;;;;;;5092900;28;19924;-53
2022/11/05 07:25:59;;;;;;;;;;;;;;;;;;5092536;28;19982;-51
2022/11/05 07:28:26;;;;;;;;;;;;;;;;;;5092682;28;19928;-55
2022/11/05 07:30:54;;;;;;;;;;;;;;;;;;5109146;28;19935;-54
2022/11/05 07:33:20;;;;;;;;;;;;;;;;;;5112907;28;19924;-57
2022/11/05 07:35:47;;;;;;;;;;;;;;;;;;5112616;28;19927;-54
2022/11/05 07:38:13;;;;;;;;;;;;;;;;;;5113049;28;20395;-53
2022/11/05 07:40:40;;;;;;;;;;;;;;;;;;5100420;28;20577;-54
2022/11/05 07:43:07;;;;;;;;;;;;;;;;;;5092736;28;19928;-57
2022/11/05 07:45:33;;;;;;;;;;;;;;;;;;5092117;28;19928;-55
2022/11/05 07:48:02;;;;;;;;;;;;;;;;;;5092372;28;19977;-54
2022/11/05 07:50:30;;;;;;;;;;;;;;;;;;5099397;28;20366;-54
2022/11/05 07:53:01;;;;;;;;;;;;;;;;;;5112820;28;19973;-54
2022/11/05 07:55:27;;;;;;;;;;;;;;;;;;5112067;28;19971;-57
2022/11/05 07:57:54;;;;;;;;;;;;;;;;;;5112391;28;19981;-51
2022/11/05 08:00:21;;;;;;;;;;;;;;;;;;5110680;28;19932;-54
2022/11/05 08:02:56;;;;;;;;;;;;;;;;;;5111000;28;20031;-51
2022/11/05 08:05:24;;;;;;;;;;;;;;;;;;5093098;28;20389;-52
2022/11/05 08:07:50;;;;;;;;;;;;;;;;;;5092142;28;19924;-54
2022/11/05 08:10:17;;;;;;;;;;;;;;;;;;5092073;28;20652;-54
2022/11/05 08:12:43;;;;;;;;;;;;;;;;;;5093574;28;19986;-54
2022/11/05 08:15:10;;;;;;;;;;;;;;;;;;5096276;28;20061;-54
2022/11/05 08:17:37;;;;;;;;;;;;;;;;;;5096383;28;19942;-54
2022/11/05 08:20:04;;;;;;;;;;;;;;;;;;5097284;28;19947;-54
2022/11/05 08:22:32;;;;;;;;;;;;;;;;;;5110721;28;19923;-55
2022/11/05 08:24:58;;;;;;;;;;;;;;;;;;5116362;28;19931;-57
2022/11/05 08:27:25;;;;;;;;;;;;;;;;;;5116233;28;19930;-54
2022/11/05 08:29:51;;;;;;;;;;;;;;;;;;5116423;28;19946;-53
2022/11/05 08:32:18;;;;;;;;;;;;;;;;;;5114484;28;19924;-51
2022/11/05 08:34:45;;;;;;;;;;;;;;;;;;5116145;28;19985;-54
2022/11/05 08:37:11;;;;;;;;;;;;;;;;;;5109736;28;19943;-56
2022/11/05 08:39:39;;;;;;;;;;;;;;;;;;5107978;28;19977;-55
2022/11/05 08:42:06;;;;;;;;;;;;;;;;;;5096991;28;20340;-53
2022/11/05 08:44:32;;;;;;;;;;;;;;;;;;5106263;28;20541;-55
2022/11/05 08:46:59;;;;;;;;;;;;;;;;;;5095580;28;19928;-56
2022/11/05 08:49:26;;;;;;;;;;;;;;;;;;5095422;28;19923;-55
2022/11/05 08:51:52;;;;;;;;;;;;;;;;;;5101839;28;19927;-55
2022/11/05 08:54:19;;;;;;;;;;;;;;;;;;5101774;28;19977;-53
2022/11/05 08:56:47;;;;;;;;;;;;;;;;;;5097933;28;19939;-56
2022/11/05 08:59:13;;;;;;;;;;;;;;;;;;5095750;28;20343;-57
2022/11/05 09:01:40;;;;;;;;;;;;;;;;;;5095489;28;19931;-55
2022/11/05 09:04:07;;;;;;;;;;;;;;;;;;5107565;28;19932;-54
2022/11/05 09:06:34;;;;;;;;;;;;;;;;;;5111520;28;19923;-58
2022/11/05 09:09:00;;;;;;;;;;;;;;;;;;5115550;28;19924;-53
2022/11/05 09:11:27;;;;;;;;;;;;;;;;;;5115671;28;19971;-55
2022/11/05 09:13:55;;;;;;;;;;;;;;;;;;5115382;28;19931;-54
2022/11/05 09:16:23;;;;;;;;;;;;;;;;;;5115513;28;20281;-54
2022/11/05 09:18:50;;;;;;;;;;;;;;;;;;5115216;28;19930;-60
2022/11/05 09:21:17;;;;;;;;;;;;;;;;;;5115271;28;19928;-60
2022/11/05 09:23:44;;;;;;;;;;;;;;;;;;5115022;28;19923;-59
2022/11/05 09:26:11;;;;;;;;;;;;;;;;;;5115236;28;19924;-58
2022/11/05 09:28:37;;;;;;;;;;;;;;;;;;5115328;28;19927;-58
2022/11/05 09:31:07;;;;;;;;;;;;;;;;;;5114954;28;19948;-60
2022/11/05 09:33:34;;;;;;;;;;;;;;;;;;5104339;28;19924;-60
2022/11/05 09:36:00;;;;;;;;;;;;;;;;;;5095059;28;19925;-61
2022/11/05 09:38:27;;;;;;;;;;;;;;;;;;5094931;28;20465;-58
2022/11/05 09:40:55;;;;;;;;;;;;;;;;;;5094787;28;20369;-58
2022/11/05 09:43:23;;;;;;;;;;;;;;;;;;5094681;28;19977;-60
2022/11/05 09:45:52;;;;;;;;;;;;;;;;;;5094812;28;19928;-60
2022/11/05 09:48:23;;;;;;;;;;;;;;;;;;5094579;28;19924;-60
2022/11/05 09:50:50;;;;;;;;;;;;;;;;;;5094681;28;19954;-57
2022/11/05 09:53:18;;;;;;;;;;;;;;;;;;5095657;28;19924;-60
2022/11/05 09:55:46;;;;;;;;;;;;;;;;;;5105951;28;20436;-58
2022/11/05 09:58:15;;;;;;;;;;;;;;;;;;5114861;28;19924;-59
2022/11/05 10:00:42;;;;;;;;;;;;;;;;;;5115156;28;19969;-60
2022/11/05 10:03:11;;;;;;;;;;;;;;;;;;5114837;28;19924;-66
2022/11/05 10:05:40;;;;;;;;;;;;;;;;;;5108685;28;19923;-57
2022/11/05 10:08:11;;;;;;;;;;;;;;;;;;5104257;28;19924;-59
2022/11/05 10:10:39;;;;;;;;;;;;;;;;;;5096522;28;20358;-62
2022/11/05 10:13:07;;;;;;;;;;;;;;;;;;5113235;28;19923;-64
2022/11/05 10:15:37;;;;;;;;;;;;;;;;;;5114567;28;19931;-67
2022/11/05 10:18:06;;;;;;;;;;;;;;;;;;5114546;28;20015;-63
2022/11/05 10:20:33;;;;;;;;;;;;;;;;;;5111634;28;19932;-67
2022/11/05 10:23:08;;;;;;;;;;;;;;;;;;5098442;28;19928;-64
2022/11/05 10:25:38;;;;;;;;;;;;;;;;;;5114036;28;19977;-69
2022/11/05 10:28:06;;;;;;;;;;;;;;;;;;5113482;28;20373;-56
2022/11/05 10:30:32;;;;;;;;;;;;;;;;;;5099093;28;19932;-57
2022/11/05 10:33:01;;;;;;;;;;;;;;;;;;5095214;28;19931;-60
2022/11/05 10:35:29;;;;;;;;;;;;;;;;;;5102137;28;19934;-55
2022/11/05 10:37:56;;;;;;;;;;;;;;;;;;5093875;28;19947;-59
2022/11/05 10:40:31;;;;;;;;;;;;;;;;;;5093798;28;20529;-58
2022/11/05 10:43:02;;;;;;;;;;;;;;;;;;5093684;28;19977;-57
2022/11/05 10:45:32;;;;;;;;;;;;;;;;;;5093660;28;19928;-60
2022/11/05 10:48:05;;;;;;;;;;;;;;;;;;5093408;28;19924;-59
2022/11/05 10:50:32;;;;;;;;;;;;;;;;;;5096384;28;19924;-58
2022/11/05 10:53:01;;;;;;;;;;;;;;;;;;5100061;28;20343;-58
2022/11/05 10:55:30;;;;;;;;;;;;;;;;;;5111015;28;19927;-58
2022/11/05 10:58:07;;;;;;;;;;;;;;;;;;5112208;28;20318;-58
2022/11/05 11:00:33;;;;;;;;;;;;;;;;;;5093717;28;19931;-59
2022/11/05 11:03:01;;;;;;;;;;;;;;;;;;5093812;28;19931;-59
2022/11/05 11:05:29;;;;;;;;;;;;;;;;;;5094795;28;19924;-59
2022/11/05 11:08:05;;;;;;;;;;;;;;;;;;5099104;28;19924;-57
2022/11/05 11:10:35;;;;;;;;;;;;;;;;;;5103098;28;20052;-59
2022/11/05 11:13:02;;;;;;;;;;;;;;;;;;5092333;28;20015;-59
2022/11/05 11:15:31;;;;;;;;;;;;;;;;;;5093208;28;19931;-58
2022/11/05 11:17:58;;;;;;;;;;;;;;;;;;5093042;28;19924;-57
2022/11/05 11:20:25;;;;;;;;;;;;;;;;;;5092694;28;19928;-59
2022/11/05 11:23:02;;;;;;;;;;;;;;;;;;5093535;28;20323;-59
2022/11/05 11:25:30;;;;;;;;;;;;;;;;;;5093198;28;19928;-58
2022/11/05 11:28:01;;;;;;;;;;;;;;;;;;5092028;28;19938;-59
2022/11/05 11:30:27;;;;;;;;;;;;;;;;;;5093423;28;19931;-60
2022/11/05 11:32:56;;;;;;;;;;;;;;;;;;5092946;28;19924;-59
2022/11/05 11:35:24;;;;;;;;;;;;;;;;;;5092297;28;19924;-60
2022/11/05 11:37:53;;;;;;;;;;;;;;;;;;5092697;28;19928;-59
2022/11/05 11:40:20;;;;;;;;;;;;;;;;;;5092349;28;19928;-59
2022/11/05 11:42:48;;;;;;;;;;;;;;;;;;5092668;28;19924;-59
2022/11/05 11:45:18;;;;;;;;;;;;;;;;;;5092946;28;19973;-60
2022/11/05 11:47:45;;;;;;;;;;;;;;;;;;5091156;28;19924;-58
2022/11/05 11:50:36;;;;;;;;;;;;;;;;;;5092912;28;20127;-59
2022/11/05 11:53:21;;;;;;;;;;;;;;;;;;5092791;28;19932;-59
2022/11/05 11:55:59;;;;;;;;;;;;;;;;;;5092401;28;19931;-60
2022/11/05 11:58:35;;;;;;;;;;;;;;;;;;5093333;28;20369;-57
2022/11/05 12:01:06;;;;;;;;;;;;;;;;;;5093167;28;20342;-58
2022/11/05 12:03:35;;;;;;;;;;;;;;;;;;5102359;28;19924;-60
2022/11/05 12:06:05;;;;;;;;;;;;;;;;;;5105023;28;19932;-54
2022/11/05 12:08:37;;;;;;;;;;;;;;;;;;5107371;28;19924;-59
2022/11/05 12:11:07;;;;;;;;;;;;;;;;;;5112153;28;20326;-59
2022/11/05 12:13:49;;;;;;;;;;;;;;;;;;5104113;28;19928;-59
2022/11/05 12:16:22;;;;;;;;;;;;;;;;;;5095832;28;19953;-58
2022/11/05 12:18:53;;;;;;;;;;;;;;;;;;5113000;28;19928;-58
2022/11/05 12:21:24;;;;;;;;;;;;;;;;;;5096060;28;20336;-59
2022/11/05 12:24:02;;;;;;;;;;;;;;;;;;5093728;28;20297;-59
2022/11/05 12:26:35;;;;;;;;;;;;;;;;;;5092659;28;19924;-58
2022/11/05 12:29:17;;;;;;;;;;;;;;;;;;5092525;28;20019;-59
2022/11/05 12:31:49;;;;;;;;;;;;;;;;;;5091476;28;19931;-60
2022/11/05 12:34:24;;;;;;;;;;;;;;;;;;5092112;28;19924;-60
2022/11/05 12:37:03;;;;;;;;;;;;;;;;;;5099174;28;19969;-58
2022/11/05 12:39:42;;;;;;;;;;;;;;;;;;5091287;28;20006;-60
2022/11/05 12:42:15;;;;;;;;;;;;;;;;;;5091845;28;19994;-60
2022/11/05 12:44:53;;;;;;;;;;;;;;;;;;5101780;28;19932;-59
2022/11/05 12:47:29;;;;;;;;;;;;;;;;;;5094779;28;19932;-59
2022/11/05 12:50:04;;;;;;;;;;;;;;;;;;5100217;28;19924;-58
2022/11/05 12:52:42;;;;;;;;;;;;;;;;;;5094957;28;19924;-55
2022/11/05 12:55:11;;;;;;;;;;;;;;;;;;5097590;28;19958;-58
2022/11/05 12:57:40;;;;;;;;;;;;;;;;;;5103677;28;19925;-58
2022/11/05 13:00:09;;;;;;;;;;;;;;;;;;5102346;28;20008;-56
2022/11/05 13:02:40;;;;;;;;;;;;;;;;;;5100685;28;19977;-57
2022/11/05 13:05:12;;;;;;;;;;;;;;;;;;5103963;28;19923;-58
2022/11/05 13:07:39;;;;;;;;;;;;;;;;;;5099470;28;19924;-59
2022/11/05 13:10:09;;;;;;;;;;;;;;;;;;5092550;28;19932;-58
2022/11/05 13:12:39;;;;;;;;;;;;;;;;;;5098501;28;19927;-56
2022/11/05 13:15:10;;;;;;;;;;;;;;;;;;5095998;28;19978;-57
2022/11/05 13:17:49;;;;;;;;;;;;;;;;;;5097387;28;20396;-59
2022/11/05 13:20:19;;;;;;;;;;;;;;;;;;5097955;28;19928;-58
2022/11/05 13:22:47;;;;;;;;;;;;;;;;;;5095885;28;19924;-58
2022/11/05 13:25:18;;;;;;;;;;;;;;;;;;5095580;28;19924;-58
2022/11/05 13:27:52;;;;;;;;;;;;;;;;;;5095036;28;19977;-59
2022/11/05 13:30:20;;;;;;;;;;;;;;;;;;5111041;28;20030;-58
2022/11/05 13:32:50;;;;;;;;;;;;;;;;;;5105560;28;19931;-58
2022/11/05 13:35:17;;;;;;;;;;;;;;;;;;5096240;28;19924;-59
2022/11/05 13:40:39;;;;;;;;;;;;;;;;;;5109068;28;19930;-57
2022/11/05 13:43:15;;;;;;;;;;;;;;;;;;5113379;28;19924;-59
2022/11/05 13:45:48;;;;;;;;;;;;;;;;;;5101954;28;20361;-58
2022/11/05 13:48:33;;;;;;;;;;;;;;;;;;5104936;28;19988;-57
2022/11/05 13:51:14;;;;;;;;;;;;;;;;;;5106978;28;20380;-59
2022/11/05 13:54:01;;;;;;;;;;;;;;;;;;5093001;28;20376;-56
2022/11/05 13:56:39;;;;;;;;;;;;;;;;;;5101003;28;19928;-57
2022/11/05 13:59:24;;;;;;;;;;;;;;;;;;5093900;28;20372;-59
2022/11/05 14:01:54;;;;;;;;;;;;;;;;;;5094918;28;19924;-58
2022/11/05 14:04:26;;;;;;;;;;;;;;;;;;5094620;28;20306;-57
2022/11/05 14:06:53;;;;;;;;;;;;;;;;;;5094940;28;19928;-58
2022/11/05 14:09:24;;;;;;;;;;;;;;;;;;5094723;28;19936;-56
2022/11/05 14:11:52;;;;;;;;;;;;;;;;;;5095093;28;19932;-60
2022/11/05 14:20:38;;;;;;;;;;;;;;;;;;5095074;28;19979;-53
2022/11/05 14:23:23;;;;;;;;;;;;;;;;;;5095604;28;19946;-56
2022/11/05 14:25:54;;;;;;;;;;;;;;;;;;5094304;28;19928;-54
2022/11/05 14:28:43;;;;;;;;;;;;;;;;;;5094476;28;19928;-55
2022/11/05 14:31:24;;;;;;;;;;;;;;;;;;5093687;28;19981;-56
2022/11/05 14:33:55;;;;;;;;;;;;;;;;;;5094353;28;19932;-50
2022/11/05 14:36:31;;;;;;;;;;;;;;;;;;5094283;28;20380;-52
2022/11/05 14:39:00;;;;;;;;;;;;;;;;;;5094333;28;19924;-55
2022/11/05 14:41:27;;;;;;;;;;;;;;;;;;5094344;28;19924;-51
2022/11/05 14:43:56;;;;;;;;;;;;;;;;;;5093682;28;19928;-56
2022/11/05 14:46:23;;;;;;;;;;;;;;;;;;5093887;28;19931;-55
2022/11/05 14:48:51;;;;;;;;;;;;;;;;;;5093609;28;20586;-54
2022/11/05 14:51:26;;;;;;;;;;;;;;;;;;5093888;28;19925;-54
2022/11/05 14:54:00;;;;;;;;;;;;;;;;;;5093745;28;19977;-54
2022/11/05 14:56:27;;;;;;;;;;;;;;;;;;5093470;28;19924;-52
2022/11/05 14:59:21;;;;;;;;;;;;;;;;;;5093674;28;19928;-53
2022/11/05 15:01:54;;;;;;;;;;;;;;;;;;5093541;28;19977;-53
2022/11/05 15:04:25;;;;;;;;;;;;;;;;;;5093476;28;19940;-54
2022/11/05 15:07:11;;;;;;;;;;;;;;;;;;5093385;28;19969;-52
2022/11/05 15:09:41;;;;;;;;;;;;;;;;;;5093467;28;20377;-55
2022/11/05 15:12:12;;;;;;;;;;;;;;;;;;5092882;28;20302;-53
2022/11/05 15:14:41;;;;;;;;;;;;;;;;;;5093206;28;19978;-53
2022/11/05 15:17:17;;;;;;;;;;;;;;;;;;5093283;28;20274;-55
2022/11/05 15:19:44;;;;;;;;;;;;;;;;;;5092699;28;19930;-56
2022/11/05 15:22:17;;;;;;;;;;;;;;;;;;5092841;28;19935;-54
2022/11/05 15:24:45;;;;;;;;;;;;;;;;;;5093093;28;19924;-58
2022/11/05 15:27:17;;;;;;;;;;;;;;;;;;5093216;28;20363;-58
2022/11/05 15:29:43;;;;;;;;;;;;;;;;;;5093046;28;19954;-55
2022/11/05 15:32:15;;;;;;;;;;;;;;;;;;5093247;28;19977;-55
2022/11/05 15:34:50;;;;;;;;;;;;;;;;;;5093001;28;20045;-54
2022/11/05 15:37:26;;;;;;;;;;;;;;;;;;5093324;28;19924;-53
2022/11/05 15:39:55;;;;;;;;;;;;;;;;;;5093253;28;19924;-52
2022/11/05 15:42:22;;;;;;;;;;;;;;;;;;5092786;28;19931;-56
2022/11/05 15:44:50;;;;;;;;;;;;;;;;;;5092826;28;20316;-54
2022/11/05 15:47:18;;;;;;;;;;;;;;;;;;5092998;28;19928;-55
2022/11/05 15:49:45;;;;;;;;;;;;;;;;;;5092976;28;19969;-56
2022/11/05 15:52:13;;;;;;;;;;;;;;;;;;5092797;28;19924;-56
2022/11/05 15:54:40;;;;;;;;;;;;;;;;;;5092808;28;19931;-58
2022/11/05 15:57:14;;;;;;;;;;;;;;;;;;5093268;28;19931;-55
2022/11/05 15:59:45;;;;;;;;;;;;;;;;;;5092795;28;19924;-59
2022/11/05 16:02:22;;;;;;;;;;;;;;;;;;5092894;28;19935;-56
2022/11/05 16:04:48;;;;;;;;;;;;;;;;;;5092689;28;19931;-54
2022/11/05 16:07:15;;;;;;;;;;;;;;;;;;5092799;28;19977;-55
2022/11/05 16:09:43;;;;;;;;;;;;;;;;;;5092370;28;19935;-56
2022/11/05 16:12:22;;;;;;;;;;;;;;;;;;5092897;28;19993;-56
2022/11/05 16:14:56;;;;;;;;;;;;;;;;;;5092172;28;19935;-56
2022/11/05 16:17:23;;;;;;;;;;;;;;;;;;5093002;28;19924;-55
2022/11/05 16:19:51;;;;;;;;;;;;;;;;;;5092844;28;19924;-55
2022/11/05 16:22:18;;;;;;;;;;;;;;;;;;5092466;28;19924;-56
2022/11/05 16:24:46;;;;;;;;;;;;;;;;;;5092528;28;19928;-53
2022/11/05 16:27:14;;;;;;;;;;;;;;;;;;5092623;28;19928;-56
2022/11/05 16:29:47;;;;;;;;;;;;;;;;;;5092364;28;19969;-56
2022/11/05 16:32:15;;;;;;;;;;;;;;;;;;5092476;28;19970;-52
2022/11/05 16:34:45;;;;;;;;;;;;;;;;;;5107007;28;19953;-57
2022/11/05 16:37:12;;;;;;;;;;;;;;;;;;5116557;28;19989;-54
2022/11/05 16:39:39;;;;;;;;;;;;;;;;;;5116647;28;19954;-54
2022/11/05 16:42:28;;;;;;;;;;;;;;;;;;5116313;28;19924;-55
2022/11/05 16:44:56;;;;;;;;;;;;;;;;;;5116100;28;19961;-57
2022/11/05 16:47:24;;;;;;;;;;;;;;;;;;5116622;28;20308;-55
2022/11/05 16:49:51;;;;;;;;;;;;;;;;;;5114258;28;19924;-55
2022/11/05 16:52:18;;;;;;;;;;;;;;;;;;5115567;28;19931;-54
2022/11/05 16:54:44;;;;;;;;;;;;;;;;;;5116451;28;20385;-64
2022/11/05 16:57:15;;;;;;;;;;;;;;;;;;5115982;28;19924;-55
2022/11/05 16:59:41;;;;;;;;;;;;;;;;;;5115967;28;20297;-50
2022/11/05 17:02:11;;;;;;;;;;;;;;;;;;5112490;28;20376;-56
2022/11/05 17:04:37;;;;;;;;;;;;;;;;;;5101674;28;19924;-56
2022/11/05 17:07:04;;;;;;;;;;;;;;;;;;5116266;22;19924;-51
2022/11/05 17:09:31;;;;;;;;;;;;;;;;;;5097495;28;19924;-52
2022/11/05 17:11:59;;;;;;;;;;;;;;;;;;5096276;28;19928;-52
2022/11/05 17:14:26;;;;;;;;;;;;;;;;;;5095752;28;20011;-57
2022/11/05 17:16:52;;;;;;;;;;;;;;;;;;5092907;28;19924;-54
2022/11/05 17:19:20;;;;;;;;;;;;;;;;;;5097465;28;19924;-66
2022/11/05 17:21:48;;;;;;;;;;;;;;;;;;5094957;28;19931;-47
2022/11/05 17:24:15;;;;;;;;;;;;;;;;;;5095272;28;19928;-47
2022/11/05 17:26:42;;;;;;;;;;;;;;;;;;5094725;28;19924;-55
2022/11/05 17:29:08;;;;;;;;;;;;;;;;;;5095193;28;19957;-55
2022/11/05 17:31:35;;;;;;;;;;;;;;;;;;5094034;28;19931;-53
2022/11/05 17:34:01;;;;;;;;;;;;;;;;;;5095246;28;19924;-54
2022/11/05 17:36:29;;;;;;;;;;;;;;;;;;5095073;28;20278;-54
2022/11/05 17:38:56;;;;;;;;;;;;;;;;;;5095059;28;19931;-53
2022/11/05 17:41:23;;;;;;;;;;;;;;;;;;5095377;28;19935;-53
2022/11/05 17:43:53;;;;;;;;;;;;;;;;;;5095025;28;19977;-53
2022/11/05 17:46:19;;;;;;;;;;;;;;;;;;5094757;28;19977;-51
2022/11/05 17:48:46;;;;;;;;;;;;;;;;;;5095131;28;19931;-51